createdAt,value
2022-10-30T00:01:39.456Z,16.10
2022-10-30T00:04:06.305Z,16.10
2022-10-30T00:06:33.292Z,16.10
2022-10-30T00:09:00.241Z,16.00
2022-10-30T00:11:32.023Z,16.00
2022-10-30T00:13:58.875Z,16.00
2022-10-30T00:16:26.719Z,16.00
2022-10-30T00:18:53.583Z,15.90
2022-10-30T00:21:20.887Z,15.90
2022-10-30T00:23:51.835Z,15.90
2022-10-30T00:26:19.804Z,15.90
2022-10-30T00:28:54.113Z,15.80
2022-10-30T00:31:21.200Z,15.80
2022-10-30T00:33:51.858Z,15.80
2022-10-30T00:36:18.965Z,15.80
2022-10-30T00:38:45.926Z,15.80
2022-10-30T00:41:16.851Z,15.90
2022-10-30T00:43:43.680Z,15.90
2022-10-30T00:46:35.791Z,15.90
2022-10-30T00:49:16.387Z,16.00
2022-10-30T00:51:52.472Z,16.00
2022-10-30T00:54:19.246Z,16.00
2022-10-30T00:56:46.214Z,16.00
2022-10-30T00:59:15.690Z,16.00
2022-10-30T01:01:43.648Z,16.00
2022-10-30T01:04:10.588Z,16.00
2022-10-30T01:06:39.373Z,16.00
2022-10-30T01:09:06.382Z,16.00
2022-10-30T01:11:33.329Z,16.00
2022-10-30T01:14:03.023Z,15.90
2022-10-30T01:16:30.269Z,16.00
2022-10-30T01:19:24.120Z,15.90
2022-10-30T01:21:54.812Z,15.80
2022-10-30T01:24:30.825Z,15.80
2022-10-30T01:27:34.677Z,15.80
2022-10-30T01:30:32.536Z,15.70
2022-10-30T01:33:12.192Z,15.70
2022-10-30T01:35:49.551Z,15.70
2022-10-30T01:38:26.410Z,15.70
2022-10-30T01:40:53.189Z,15.70
2022-10-30T01:43:20.094Z,15.70
2022-10-30T01:45:59.222Z,15.70
2022-10-30T01:48:54.020Z,15.70
2022-10-30T01:51:49.484Z,15.70
2022-10-30T01:54:28.309Z,15.80
2022-10-30T01:57:18.939Z,15.80
2022-10-30T01:59:57.120Z,15.80
2022-10-30T02:02:25.413Z,15.80
2022-10-30T02:04:52.328Z,15.80
2022-10-30T02:07:19.157Z,15.80
2022-10-30T02:09:45.954Z,15.80
2022-10-30T02:12:12.809Z,15.70
2022-10-30T02:14:43.324Z,15.80
2022-10-30T02:17:11.709Z,15.70
2022-10-30T02:19:38.618Z,15.80
2022-10-30T02:22:05.541Z,15.80
2022-10-30T02:24:32.531Z,15.80
2022-10-30T02:26:59.362Z,15.80
2022-10-30T02:29:26.236Z,15.70
2022-10-30T02:31:53.046Z,15.70
2022-10-30T02:34:20.019Z,15.70
2022-10-30T02:36:46.850Z,15.70
2022-10-30T02:39:13.689Z,15.70
2022-10-30T02:41:40.570Z,15.70
2022-10-30T02:44:07.518Z,15.60
2022-10-30T02:46:34.707Z,15.60
2022-10-30T02:49:01.590Z,15.50
2022-10-30T02:51:28.521Z,15.50
2022-10-30T02:53:55.374Z,15.40
2022-10-30T02:56:22.237Z,15.40
2022-10-30T02:58:49.088Z,15.30
2022-10-30T03:01:17.894Z,15.30
2022-10-30T03:03:44.936Z,15.30
2022-10-30T03:06:13.443Z,15.20
2022-10-30T03:08:40.361Z,15.20
2022-10-30T03:11:09.723Z,15.10
2022-10-30T03:13:36.574Z,15.10
2022-10-30T03:16:08.530Z,15.10
2022-10-30T03:18:35.387Z,15.00
2022-10-30T03:21:03.843Z,15.00
2022-10-30T03:23:31.903Z,15.00
2022-10-30T03:25:59.123Z,14.90
2022-10-30T03:28:27.804Z,14.90
2022-10-30T03:31:11.418Z,14.80
2022-10-30T03:33:38.326Z,14.80
2022-10-30T03:36:06.252Z,14.80
2022-10-30T03:38:33.182Z,14.70
2022-10-30T03:41:00.111Z,14.70
2022-10-30T03:43:27.160Z,14.70
2022-10-30T03:45:55.495Z,14.60
2022-10-30T03:48:23.812Z,14.60
2022-10-30T03:50:55.536Z,14.60
2022-10-30T03:53:24.084Z,14.60
2022-10-30T03:55:51.114Z,14.50
2022-10-30T03:58:17.993Z,14.50
2022-10-30T04:00:44.824Z,14.40
2022-10-30T04:03:11.853Z,14.40
2022-10-30T04:05:38.834Z,14.30
2022-10-30T04:08:08.130Z,14.30
2022-10-30T04:10:35.318Z,14.20
2022-10-30T04:13:02.899Z,14.20
2022-10-30T04:15:29.818Z,14.20
2022-10-30T04:17:56.843Z,14.20
2022-10-30T04:20:24.444Z,14.20
2022-10-30T04:23:03.260Z,14.10
2022-10-30T04:25:30.275Z,14.10
2022-10-30T04:27:57.371Z,14.20
2022-10-30T04:30:27.165Z,14.20
2022-10-30T04:32:57.599Z,14.20
2022-10-30T04:35:26.376Z,14.20
2022-10-30T04:38:00.657Z,14.20
2022-10-30T04:40:29.270Z,14.30
2022-10-30T04:42:56.356Z,14.30
2022-10-30T04:45:23.449Z,14.30
2022-10-30T04:47:50.325Z,14.40
2022-10-30T04:50:17.426Z,14.50
2022-10-30T04:52:44.387Z,14.50
2022-10-30T04:55:11.415Z,14.50
2022-10-30T04:57:38.454Z,14.50
2022-10-30T05:00:06.393Z,14.60
2022-10-30T05:02:35.738Z,14.60
2022-10-30T05:05:02.697Z,14.70
2022-10-30T05:07:29.490Z,14.70
2022-10-30T05:09:56.481Z,14.70
2022-10-30T05:12:23.323Z,14.70
2022-10-30T05:14:50.238Z,14.70
2022-10-30T05:17:17.144Z,14.70
2022-10-30T05:19:43.962Z,14.70
2022-10-30T05:22:10.859Z,14.70
2022-10-30T05:24:37.654Z,14.70
2022-10-30T05:27:04.482Z,14.80
2022-10-30T05:29:31.379Z,14.80
2022-10-30T05:31:58.197Z,14.80
2022-10-30T05:34:25.044Z,14.80
2022-10-30T05:36:51.844Z,14.80
2022-10-30T05:39:18.675Z,14.90
2022-10-30T05:41:45.510Z,14.90
2022-10-30T05:44:12.603Z,14.90
2022-10-30T05:46:39.441Z,14.90
2022-10-30T05:49:06.407Z,14.90
2022-10-30T05:51:37.938Z,14.90
2022-10-30T05:54:07.367Z,14.90
2022-10-30T05:56:34.169Z,15.00
2022-10-30T05:59:01.065Z,15.00
2022-10-30T06:01:27.956Z,15.00
2022-10-30T06:03:54.851Z,15.00
2022-10-30T06:06:21.780Z,15.00
2022-10-30T06:08:48.629Z,15.00
2022-10-30T06:11:15.486Z,15.00
2022-10-30T06:13:42.339Z,15.10
2022-10-30T06:16:09.262Z,15.10
2022-10-30T06:18:36.131Z,15.10
2022-10-30T06:21:03.696Z,15.10
2022-10-30T06:23:30.538Z,15.20
2022-10-30T06:25:57.439Z,15.20
2022-10-30T06:28:24.290Z,15.20
2022-10-30T06:30:51.141Z,15.20
2022-10-30T06:33:17.958Z,15.20
2022-10-30T06:35:44.813Z,15.30
2022-10-30T06:38:12.110Z,15.20
2022-10-30T06:40:38.893Z,15.20
2022-10-30T06:43:05.767Z,15.30
2022-10-30T06:45:32.595Z,15.30
2022-10-30T06:48:02.928Z,15.30
2022-10-30T06:50:29.962Z,15.20
2022-10-30T06:52:56.804Z,15.30
2022-10-30T06:55:23.760Z,15.20
2022-10-30T06:57:55.106Z,15.20
2022-10-30T07:00:22.144Z,15.20
2022-10-30T07:03:02.251Z,15.20
2022-10-30T07:05:29.657Z,15.10
2022-10-30T07:07:57.436Z,15.10
2022-10-30T07:10:24.237Z,15.10
2022-10-30T07:12:54.962Z,15.10
2022-10-30T07:15:22.312Z,15.00
2022-10-30T07:18:05.546Z,15.00
2022-10-30T07:20:33.774Z,15.00
2022-10-30T07:23:01.169Z,14.90
2022-10-30T07:25:28.088Z,14.90
2022-10-30T07:27:55.408Z,14.90
2022-10-30T07:32:59.155Z,14.80
2022-10-30T07:35:26.207Z,14.80
2022-10-30T07:37:53.191Z,14.80
2022-10-30T07:40:20.137Z,14.70
2022-10-30T07:42:47.361Z,14.80
2022-10-30T07:45:14.260Z,14.80
2022-10-30T07:47:42.298Z,14.70
2022-10-30T07:50:09.575Z,14.80
2022-10-30T07:52:36.655Z,14.70
2022-10-30T07:55:04.277Z,14.80
2022-10-30T07:57:35.258Z,14.80
2022-10-30T08:00:04.809Z,14.80
2022-10-30T08:02:32.219Z,14.80
2022-10-30T08:04:59.349Z,14.80
2022-10-30T08:07:33.163Z,14.80
2022-10-30T08:10:00.093Z,14.80
2022-10-30T08:12:27.130Z,14.80
2022-10-30T08:14:54.059Z,14.80
2022-10-30T08:17:21.252Z,14.80
2022-10-30T08:19:48.186Z,14.80
2022-10-30T08:22:15.128Z,14.80
2022-10-30T08:24:42.284Z,14.70
2022-10-30T08:27:09.811Z,14.70
2022-10-30T08:29:36.633Z,14.70
2022-10-30T08:32:03.563Z,14.70
2022-10-30T08:34:32.574Z,14.70
2022-10-30T08:37:00.202Z,14.70
2022-10-30T08:39:27.087Z,14.70
2022-10-30T08:41:53.976Z,14.70
2022-10-30T08:44:20.820Z,14.80
2022-10-30T08:46:47.664Z,14.80
2022-10-30T08:49:14.502Z,14.80
2022-10-30T08:51:41.403Z,14.80
2022-10-30T08:54:09.341Z,14.80
2022-10-30T08:56:36.243Z,14.80
2022-10-30T08:59:03.063Z,14.70
2022-10-30T09:01:30.052Z,14.70
2022-10-30T09:03:56.905Z,14.60
2022-10-30T09:06:23.773Z,14.60
2022-10-30T09:08:50.628Z,14.60
2022-10-30T09:11:17.621Z,14.60
2022-10-30T09:13:44.447Z,14.50
2022-10-30T09:16:11.282Z,14.50
2022-10-30T09:18:38.173Z,14.50
2022-10-30T09:21:05.434Z,14.50
2022-10-30T09:23:32.606Z,14.50
2022-10-30T09:25:59.518Z,14.50
2022-10-30T09:28:26.375Z,14.50
2022-10-30T09:30:56.595Z,14.50
2022-10-30T09:33:23.648Z,14.40
2022-10-30T09:35:50.616Z,14.40
2022-10-30T09:38:17.519Z,14.40
2022-10-30T09:40:58.278Z,14.40
2022-10-30T09:43:34.700Z,14.40
2022-10-30T09:46:23.435Z,14.40
2022-10-30T09:49:15.060Z,14.40
2022-10-30T09:52:08.647Z,14.40
2022-10-30T09:54:53.952Z,14.30
2022-10-30T09:57:33.614Z,14.40
2022-10-30T10:00:13.289Z,14.40
2022-10-30T10:02:49.183Z,14.50
2022-10-30T10:05:19.517Z,14.60
2022-10-30T10:07:49.163Z,14.60
2022-10-30T10:10:40.115Z,14.60
2022-10-30T10:13:10.016Z,14.70
2022-10-30T10:15:47.718Z,14.70
2022-10-30T10:18:23.833Z,14.70
2022-10-30T10:20:51.812Z,14.70
2022-10-30T10:23:20.154Z,14.80
2022-10-30T10:25:55.498Z,14.80
2022-10-30T10:28:43.726Z,14.80
2022-10-30T10:31:28.795Z,14.80
2022-10-30T10:34:17.776Z,14.70
2022-10-30T10:36:59.523Z,14.70
2022-10-30T10:39:30.472Z,14.70
2022-10-30T10:42:03.220Z,14.70
2022-10-30T10:45:04.837Z,14.70
2022-10-30T10:47:49.365Z,14.70
2022-10-30T10:50:25.506Z,14.70
2022-10-30T10:53:10.811Z,14.70
2022-10-30T10:55:39.138Z,14.70
2022-10-30T10:58:28.896Z,14.70
2022-10-30T11:00:58.011Z,14.70
2022-10-30T11:03:33.406Z,14.70
2022-10-30T11:06:12.566Z,14.70
2022-10-30T11:08:39.446Z,14.70
2022-10-30T11:11:08.366Z,14.70
2022-10-30T11:13:37.435Z,14.70
2022-10-30T11:16:30.904Z,14.70
2022-10-30T11:19:02.653Z,14.80
2022-10-30T11:21:39.639Z,14.80
2022-10-30T11:24:30.264Z,14.90
2022-10-30T11:26:58.783Z,14.90
2022-10-30T11:29:29.840Z,14.90
2022-10-30T11:32:04.541Z,15.00
2022-10-30T11:34:36.129Z,15.00
2022-10-30T11:37:03.570Z,15.00
2022-10-30T11:39:34.632Z,15.00
2022-10-30T11:42:12.265Z,15.00
2022-10-30T11:44:59.386Z,15.00
2022-10-30T11:50:03.557Z,15.10
2022-10-30T11:52:30.394Z,15.20
2022-10-30T11:55:00.965Z,15.30
2022-10-30T11:57:37.893Z,15.30
2022-10-30T12:00:23.845Z,15.40
2022-10-30T12:02:52.335Z,15.50
2022-10-30T12:05:33.320Z,15.40
2022-10-30T12:08:09.237Z,15.40
2022-10-30T12:10:45.543Z,15.30
2022-10-30T12:13:16.381Z,15.30
2022-10-30T12:15:43.244Z,15.30
2022-10-30T12:18:22.835Z,15.30
2022-10-30T12:20:52.793Z,15.40
2022-10-30T12:23:21.288Z,15.40
2022-10-30T12:25:48.614Z,15.50
2022-10-30T12:28:20.409Z,15.50
2022-10-30T12:31:00.035Z,15.60
2022-10-30T12:33:39.992Z,15.60
2022-10-30T12:36:10.492Z,15.70
2022-10-30T12:38:51.786Z,15.70
2022-10-30T12:41:40.225Z,15.70
2022-10-30T12:44:21.729Z,15.70
2022-10-30T12:46:56.378Z,15.60
2022-10-30T12:49:40.102Z,15.70
2022-10-30T12:52:33.565Z,15.70
2022-10-30T12:55:14.528Z,15.70
2022-10-30T12:57:44.727Z,15.70
2022-10-30T13:00:16.169Z,15.80
2022-10-30T13:02:43.044Z,15.80
2022-10-30T13:05:40.120Z,15.90
2022-10-30T13:08:21.591Z,15.90
2022-10-30T13:11:05.503Z,16.00
2022-10-30T13:13:41.383Z,16.00
2022-10-30T13:16:14.759Z,16.00
2022-10-30T13:18:41.618Z,15.90
2022-10-30T13:21:34.636Z,16.00
2022-10-30T13:24:47.683Z,16.00
2022-10-30T13:27:27.847Z,16.00
2022-10-30T13:29:57.050Z,16.00
2022-10-30T13:32:30.247Z,16.00
2022-10-30T13:35:22.031Z,16.00
2022-10-30T13:38:10.602Z,16.10
2022-10-30T13:40:47.073Z,16.10
2022-10-30T13:43:28.877Z,16.00
2022-10-30T13:46:20.182Z,16.00
2022-10-30T13:49:31.391Z,16.00
2022-10-30T13:52:13.065Z,15.90
2022-10-30T13:55:20.972Z,15.90
2022-10-30T13:57:51.154Z,15.90
2022-10-30T14:00:20.591Z,16.00
2022-10-30T14:03:17.755Z,16.00
2022-10-30T14:06:06.040Z,16.10
2022-10-30T14:09:04.719Z,16.10
2022-10-30T14:11:31.588Z,16.10
2022-10-30T14:14:13.773Z,16.20
2022-10-30T14:16:42.582Z,16.20
2022-10-30T14:19:13.805Z,16.30
2022-10-30T14:21:56.143Z,16.40
2022-10-30T14:24:23.019Z,16.50
2022-10-30T14:27:08.586Z,16.60
2022-10-30T14:29:35.730Z,16.50
2022-10-30T14:32:23.138Z,16.50
2022-10-30T14:34:55.761Z,16.50
2022-10-30T14:37:28.232Z,16.40
2022-10-30T14:39:55.785Z,16.40
2022-10-30T14:42:29.885Z,16.40
2022-10-30T14:45:25.231Z,16.30
2022-10-30T14:47:57.891Z,16.30
2022-10-30T14:50:39.448Z,16.20
2022-10-30T14:53:35.883Z,16.10
2022-10-30T14:56:23.037Z,16.10
2022-10-30T14:59:14.720Z,16.10
2022-10-30T15:02:09.215Z,16.00
2022-10-30T15:04:57.759Z,16.00
2022-10-30T15:07:43.193Z,15.90
2022-10-30T15:10:19.204Z,15.80
2022-10-30T15:12:58.286Z,15.80
2022-10-30T15:15:28.260Z,15.80
2022-10-30T15:17:56.784Z,15.80
2022-10-30T15:20:25.493Z,15.80
2022-10-30T15:22:54.577Z,15.80
2022-10-30T15:25:23.339Z,15.70
2022-10-30T15:27:55.115Z,15.70
2022-10-30T15:30:23.706Z,15.70
2022-10-30T15:32:50.633Z,15.80
2022-10-30T15:35:21.293Z,15.70
2022-10-30T15:37:57.701Z,15.80
2022-10-30T15:40:24.725Z,15.70
2022-10-30T15:42:51.579Z,15.70
2022-10-30T15:45:29.069Z,15.70
2022-10-30T15:48:19.557Z,15.80
2022-10-30T15:51:03.007Z,15.70
2022-10-30T15:53:45.694Z,15.60
2022-10-30T15:56:54.104Z,15.50
2022-10-30T15:59:27.348Z,15.50
2022-10-30T16:01:55.617Z,15.40
2022-10-30T16:04:27.286Z,15.40
2022-10-30T16:06:56.098Z,15.30
2022-10-30T16:09:24.196Z,15.30
2022-10-30T16:11:52.135Z,15.20
2022-10-30T16:14:26.969Z,15.20
2022-10-30T16:16:53.969Z,15.10
2022-10-30T16:19:29.149Z,15.10
2022-10-30T16:21:56.695Z,15.00
2022-10-30T16:24:31.501Z,15.00
2022-10-30T16:27:23.791Z,15.00
2022-10-30T16:29:55.682Z,14.90
2022-10-30T16:32:24.749Z,14.90
2022-10-30T16:34:54.421Z,14.80
2022-10-30T16:37:23.341Z,14.80
2022-10-30T16:39:50.686Z,14.80
2022-10-30T16:42:24.208Z,14.70
2022-10-30T16:44:51.218Z,14.70
2022-10-30T16:47:18.048Z,14.70
2022-10-30T16:49:49.852Z,14.60
2022-10-30T16:52:17.247Z,14.60
2022-10-30T16:54:48.414Z,14.60
2022-10-30T16:57:26.489Z,14.60
2022-10-30T16:59:53.442Z,14.50
2022-10-30T17:02:26.215Z,14.50
2022-10-30T17:04:58.152Z,14.50
2022-10-30T17:07:26.206Z,14.40
2022-10-30T17:09:55.668Z,14.40
2022-10-30T17:12:26.273Z,14.50
2022-10-30T17:15:04.312Z,14.40
2022-10-30T17:17:38.281Z,14.50
2022-10-30T17:20:14.144Z,14.50
2022-10-30T17:22:41.048Z,14.50
2022-10-30T17:25:17.294Z,14.50
2022-10-30T17:27:48.242Z,14.60
2022-10-30T17:30:34.734Z,14.60
2022-10-30T17:33:26.544Z,14.60
2022-10-30T17:38:21.306Z,14.50
2022-10-30T17:40:48.205Z,14.50
2022-10-30T17:43:15.494Z,14.50
2022-10-30T17:45:45.437Z,14.40
2022-10-30T17:48:16.603Z,14.30
2022-10-30T17:50:43.649Z,14.30
2022-10-30T17:53:21.934Z,14.20
2022-10-30T17:56:02.877Z,14.20
2022-10-30T17:58:31.109Z,14.20
2022-10-30T18:00:58.961Z,14.10
2022-10-30T18:03:26.113Z,14.00
2022-10-30T18:05:53.255Z,14.00
2022-10-30T18:08:20.269Z,14.00
2022-10-30T18:10:47.135Z,13.90
2022-10-30T18:13:14.674Z,13.90
2022-10-30T18:15:45.471Z,13.80
2022-10-30T18:18:12.284Z,13.80
2022-10-30T18:20:39.220Z,13.80
2022-10-30T18:23:50.358Z,13.70
2022-10-30T18:26:07.701Z,13.70
2022-10-30T18:28:34.539Z,13.60
2022-10-30T18:31:01.892Z,13.60
2022-10-30T18:33:28.713Z,13.60
2022-10-30T18:35:57.588Z,13.60
2022-10-30T18:38:24.606Z,13.50
2022-10-30T18:40:51.574Z,13.50
2022-10-30T18:43:19.060Z,13.50
2022-10-30T18:45:46.128Z,13.50
2022-10-30T18:48:13.098Z,13.50
2022-10-30T18:50:40.115Z,13.50
2022-10-30T18:53:15.849Z,13.60
2022-10-30T18:55:42.786Z,13.60
2022-10-30T18:58:10.002Z,13.70
2022-10-30T19:00:57.962Z,13.70
2022-10-30T19:03:24.706Z,13.70
2022-10-30T19:05:51.685Z,13.70
2022-10-30T19:08:18.563Z,13.70
2022-10-30T19:10:46.292Z,13.70
2022-10-30T19:13:19.749Z,13.60
2022-10-30T19:16:00.536Z,13.60
2022-10-30T19:18:28.537Z,13.60
2022-10-30T19:21:15.673Z,13.50
2022-10-30T19:23:42.374Z,13.50
2022-10-30T19:26:09.320Z,13.40
2022-10-30T19:28:38.340Z,13.30
2022-10-30T19:31:05.323Z,13.30
2022-10-30T19:33:32.194Z,13.20
2022-10-30T19:36:04.852Z,13.20
2022-10-30T19:38:32.205Z,13.10
2022-10-30T19:40:59.424Z,13.10
2022-10-30T19:43:26.348Z,13.00
2022-10-30T19:45:55.660Z,13.00
2022-10-30T19:48:55.960Z,13.00
2022-10-30T19:51:11.605Z,13.00
2022-10-30T19:53:39.269Z,12.90
2022-10-30T19:56:06.508Z,12.90
2022-10-30T19:58:33.367Z,12.80
2022-10-30T20:01:00.251Z,12.90
2022-10-30T20:03:27.241Z,12.80
2022-10-30T20:05:55.751Z,12.80
2022-10-30T20:08:24.225Z,12.80
2022-10-30T20:10:55.445Z,12.70
2022-10-30T20:13:25.388Z,12.70
2022-10-30T20:15:53.076Z,12.60
2022-10-30T20:18:21.625Z,12.50
2022-10-30T20:20:52.979Z,12.50
2022-10-30T20:23:22.649Z,12.40
2022-10-30T20:25:50.380Z,12.40
2022-10-30T20:28:26.871Z,12.30
2022-10-30T20:30:54.047Z,12.30
2022-10-30T20:33:21.007Z,12.20
2022-10-30T20:35:48.446Z,12.20
2022-10-30T20:38:33.930Z,12.20
2022-10-30T20:41:02.019Z,12.20
2022-10-30T20:43:33.774Z,12.20
2022-10-30T20:46:00.953Z,12.20
2022-10-30T20:48:27.922Z,12.20
2022-10-30T20:50:58.828Z,12.20
2022-10-30T20:53:25.684Z,12.20
2022-10-30T20:55:52.549Z,12.20
2022-10-30T20:58:19.423Z,12.30
2022-10-30T21:00:46.455Z,12.30
2022-10-30T21:03:14.516Z,12.30
2022-10-30T21:05:44.689Z,12.30
2022-10-30T21:08:15.420Z,12.30
2022-10-30T21:10:42.467Z,12.20
2022-10-30T21:13:10.766Z,12.20
2022-10-30T21:15:39.925Z,12.10
2022-10-30T21:18:07.016Z,12.10
2022-10-30T21:20:34.022Z,12.00
2022-10-30T21:23:00.869Z,12.00
2022-10-30T21:25:28.795Z,12.00
2022-10-30T21:27:58.764Z,12.00
2022-10-30T21:30:25.640Z,12.00
2022-10-30T21:32:52.514Z,12.00
2022-10-30T21:35:19.799Z,11.90
2022-10-30T21:37:46.690Z,11.90
2022-10-30T21:40:13.650Z,11.90
2022-10-30T21:42:40.503Z,11.90
2022-10-30T21:45:08.106Z,11.90
2022-10-30T21:47:34.982Z,11.80
2022-10-30T21:50:06.037Z,11.80
2022-10-30T21:52:35.987Z,11.90
2022-10-30T21:55:03.009Z,11.90
2022-10-30T21:57:29.952Z,11.90
2022-10-30T21:59:58.917Z,11.90
2022-10-30T22:02:28.699Z,11.90
2022-10-30T22:04:55.519Z,11.90
2022-10-30T22:07:22.451Z,12.00
2022-10-30T22:09:49.251Z,12.00
2022-10-30T22:12:16.095Z,12.00
2022-10-30T22:14:42.962Z,12.00
2022-10-30T22:17:09.794Z,12.00
2022-10-30T22:19:36.589Z,12.00
2022-10-30T22:22:07.064Z,12.00
2022-10-30T22:24:33.981Z,11.90
2022-10-30T22:27:00.751Z,11.90
2022-10-30T22:29:27.573Z,11.90
2022-10-30T22:31:54.471Z,11.90
2022-10-30T22:34:21.313Z,11.90
2022-10-30T22:36:48.154Z,11.90
2022-10-30T22:39:15.078Z,11.90
2022-10-30T22:41:42.098Z,11.90
2022-10-30T22:44:12.084Z,11.90
2022-10-30T22:46:39.010Z,11.90
2022-10-30T22:49:06.244Z,12.00
2022-10-30T22:51:33.775Z,12.00
2022-10-30T22:54:01.765Z,12.00
2022-10-30T22:56:29.967Z,12.00
2022-10-30T22:58:57.556Z,12.00
2022-10-30T23:01:26.045Z,12.00
2022-10-30T23:03:54.807Z,12.00
2022-10-30T23:06:21.743Z,12.00
2022-10-30T23:08:49.154Z,12.00
2022-10-30T23:11:16.045Z,12.00
2022-10-30T23:13:43.194Z,12.00
2022-10-30T23:16:12.837Z,12.00
2022-10-30T23:18:39.561Z,11.90
2022-10-30T23:21:08.306Z,11.90
2022-10-30T23:23:37.066Z,11.90
2022-10-30T23:26:15.990Z,11.80
2022-10-30T23:28:43.041Z,11.80
2022-10-30T23:31:16.581Z,11.80
2022-10-30T23:33:43.428Z,11.80
2022-10-30T23:36:10.207Z,11.80
2022-10-30T23:38:37.026Z,11.80
2022-10-30T23:41:03.828Z,11.70
2022-10-30T23:43:30.770Z,11.70
2022-10-30T23:45:57.631Z,11.60
2022-10-30T23:48:27.061Z,11.60
2022-10-30T23:50:53.901Z,11.60
2022-10-30T23:53:20.728Z,11.60
2022-10-30T23:55:54.078Z,11.50
2022-10-30T23:58:21.251Z,11.50
